TimeEDT,TemperatureF,Dew PointF,Humidity,Sea Level PressureIn,VisibilityMPH,Wind Direction,Wind SpeedMPH,Gust SpeedMPH,PrecipitationIn,Events,Conditions,WindDirDegrees,DateUTC
12:53 AM,71.1,68.0,90,30.06,10.0,North,5.8,-,N/A,,Clear,10,2012-10-10 04:53:00
1:53 AM,71.1,68.0,90,30.06,10.0,North,8.1,-,N/A,,Clear,360,2012-10-10 05:53:00
2:53 AM,70.0,68.0,93,30.05,10.0,North,6.9,-,N/A,,Clear,360,2012-10-10 06:53:00
3:53 AM,70.0,68.0,93,30.05,10.0,North,6.9,-,N/A,,Scattered Clouds,360,2012-10-10 07:53:00
4:53 AM,71.1,66.9,87,30.05,10.0,North,6.9,-,N/A,,Mostly Cloudy,360,2012-10-10 08:53:00
5:53 AM,71.1,66.9,87,30.06,10.0,North,8.1,-,N/A,,Mostly Cloudy,360,2012-10-10 09:53:00
6:53 AM,70.0,66.9,90,30.08,10.0,North,5.8,-,N/A,,Scattered Clouds,360,2012-10-10 10:53:00
7:53 AM,70.0,66.9,90,30.09,10.0,North,5.8,-,N/A,,Scattered Clouds,350,2012-10-10 11:53:00
8:53 AM,73.9,68.0,82,30.11,10.0,North,8.1,-,N/A,,Scattered Clouds,360,2012-10-10 12:53:00
9:53 AM,77.0,68.0,74,30.12,10.0,NNE,8.1,-,N/A,,Scattered Clouds,30,2012-10-10 13:53:00
10:53 AM,79.0,68.0,69,30.12,10.0,North,8.1,-,N/A,,Mostly Cloudy,10,2012-10-10 14:53:00
11:53 AM,81.0,68.0,65,30.12,10.0,North,6.9,-,N/A,,Mostly Cloudy,360,2012-10-10 15:53:00
12:53 PM,82.0,66.9,60,30.10,10.0,NNE,9.2,-,N/A,,Scattered Clouds,20,2012-10-10 16:53:00
1:53 PM,84.0,66.0,55,30.08,10.0,North,6.9,-,N/A,,Mostly Cloudy,350,2012-10-10 17:53:00
2:53 PM,84.9,64.0,49,30.06,10.0,North,9.2,-,N/A,,Mostly Cloudy,350,2012-10-10 18:53:00
3:53 PM,84.9,62.1,46,30.05,10.0,NNW,8.1,-,N/A,,Scattered Clouds,340,2012-10-10 19:53:00
4:53 PM,84.9,62.1,46,30.04,10.0,NNW,5.8,-,N/A,,Scattered Clouds,340,2012-10-10 20:53:00
5:53 PM,82.9,61.0,47,30.04,10.0,ENE,4.6,-,N/A,,Scattered Clouds,70,2012-10-10 21:53:00
6:53 PM,77.0,66.0,69,30.06,10.0,East,11.5,-,N/A,,Partly Cloudy,80,2012-10-10 22:53:00
7:53 PM,73.9,64.9,73,30.07,10.0,East,5.8,-,N/A,,Clear,90,2012-10-10 23:53:00
8:53 PM,73.0,64.0,73,30.09,10.0,ENE,8.1,-,N/A,,Clear,60,2012-10-11 00:53:00
9:53 PM,72.0,64.9,78,30.11,10.0,NE,3.5,-,N/A,,Clear,50,2012-10-11 01:53:00
10:53 PM,71.1,64.9,81,30.13,10.0,NNE,6.9,-,N/A,,Clear,30,2012-10-11 02:53:00
11:53 PM,70.0,64.9,84,30.13,10.0,NNE,5.8,-,N/A,,Clear,30,2012-10-11 03:53:00